createdAt,value
2019-05-12T00:01:18.539Z,3.28
2019-05-12T00:06:23.276Z,2.77
2019-05-12T00:11:30.697Z,2.96
2019-05-12T00:16:38.581Z,2.47
2019-05-12T00:21:45.145Z,2.47
2019-05-12T00:26:52.546Z,2.62
2019-05-12T00:31:59.915Z,2.54
2019-05-12T00:37:08.336Z,3.00
2019-05-12T00:42:14.325Z,2.96
2019-05-12T00:47:21.744Z,2.84
2019-05-12T00:52:29.197Z,3.34
2019-05-12T00:57:38.289Z,3.70
2019-05-12T01:02:43.548Z,3.95
2019-05-12T01:07:51.232Z,4.38
2019-05-12T01:12:58.293Z,4.48
2019-05-12T01:18:04.818Z,4.43
2019-05-12T01:23:12.718Z,5.37
2019-05-12T01:28:20.104Z,4.68
2019-05-12T01:33:27.778Z,4.56
2019-05-12T01:38:34.932Z,4.59
2019-05-12T01:43:42.365Z,4.28
2019-05-12T01:48:49.755Z,4.18
2019-05-12T01:54:10.571Z,4.27
2019-05-12T01:59:04.162Z,4.11
2019-05-12T02:04:11.546Z,4.65
2019-05-12T02:09:18.892Z,4.98
2019-05-12T02:14:27.566Z,4.38
2019-05-12T02:19:33.213Z,5.02
2019-05-12T02:24:40.637Z,5.15
2019-05-12T02:29:48.097Z,5.84
2019-05-12T02:34:55.506Z,5.77
2019-05-12T02:40:04.714Z,5.12
2019-05-12T02:45:09.805Z,4.92
2019-05-12T02:50:17.229Z,5.31
2019-05-12T02:55:25.626Z,4.73
2019-05-12T03:00:34.947Z,4.42
2019-05-12T03:05:38.586Z,4.04
2019-05-12T03:10:46.002Z,4.24
2019-05-12T03:15:54.855Z,4.50
2019-05-12T03:21:00.346Z,4.70
2019-05-12T03:26:07.770Z,4.95
2019-05-12T03:31:22.500Z,6.03
2019-05-12T03:36:32.238Z,4.91
2019-05-12T03:41:28.972Z,5.24
2019-05-12T03:46:36.693Z,4.86
2019-05-12T03:51:45.689Z,4.82
2019-05-12T03:56:51.030Z,4.52
2019-05-12T04:01:58.353Z,5.28
2019-05-12T04:07:05.783Z,4.90
2019-05-12T04:12:14.798Z,4.87
2019-05-12T04:17:20.101Z,5.38
2019-05-12T04:22:27.428Z,4.70
2019-05-12T04:27:35.065Z,4.56
2019-05-12T04:32:44.834Z,5.45
2019-05-12T04:37:49.183Z,5.29
2019-05-12T04:42:56.523Z,6.92
2019-05-12T04:48:05.162Z,6.58
2019-05-12T04:53:10.845Z,6.51
2019-05-12T04:58:18.353Z,6.59
2019-05-12T05:03:25.766Z,6.78
2019-05-12T05:08:34.886Z,6.89
2019-05-12T05:13:40.062Z,7.20
2019-05-12T05:18:47.546Z,6.68
2019-05-12T05:23:55.027Z,6.36
2019-05-12T05:29:04.320Z,7.69
2019-05-12T05:34:09.351Z,10.56
2019-05-12T05:39:16.742Z,13.52
2019-05-12T05:44:24.200Z,10.82
2019-05-12T05:49:31.586Z,10.97
2019-05-12T05:54:40.204Z,9.29
2019-05-12T05:59:46.004Z,8.35
2019-05-12T06:04:56.262Z,9.02
2019-05-12T06:10:00.371Z,8.35
2019-05-12T06:15:08.975Z,7.95
2019-05-12T06:20:14.729Z,8.23
2019-05-12T06:25:26.123Z,8.10
2019-05-12T06:30:29.068Z,8.18
2019-05-12T06:35:42.082Z,8.32
2019-05-12T06:40:45.334Z,7.64
2019-05-12T06:45:50.380Z,6.14
2019-05-12T06:50:58.098Z,6.76
2019-05-12T06:56:09.476Z,5.60
2019-05-12T07:01:19.249Z,5.07
2019-05-12T07:06:19.958Z,5.08
2019-05-12T07:11:26.266Z,4.35
2019-05-12T07:16:34.157Z,3.64
2019-05-12T07:21:40.526Z,3.42
2019-05-12T07:26:48.373Z,3.34
2019-05-12T07:31:55.113Z,2.84
2019-05-12T07:37:04.424Z,3.32
2019-05-12T07:42:09.499Z,2.35
2019-05-12T07:47:19.150Z,1.89
2019-05-12T07:52:24.321Z,3.32
2019-05-12T07:57:33.913Z,2.17
2019-05-12T08:02:37.858Z,2.26
2019-05-12T08:07:45.254Z,1.71
2019-05-12T08:12:59.399Z,1.27
2019-05-12T08:17:59.817Z,1.23
2019-05-12T08:23:10.383Z,1.55
2019-05-12T08:28:18.173Z,1.66
2019-05-12T08:33:23.768Z,2.78
2019-05-12T08:38:28.184Z,2.96
2019-05-12T08:43:40.690Z,2.42
2019-05-12T08:48:44.652Z,3.62
2019-05-12T08:53:56.279Z,2.55
2019-05-12T08:58:56.886Z,2.64
2019-05-12T09:04:06.707Z,2.56
2019-05-12T09:09:11.322Z,2.66
2019-05-12T09:14:18.935Z,2.34
2019-05-12T09:19:27.265Z,2.14
2019-05-12T09:24:33.758Z,2.31
2019-05-12T09:29:40.145Z,2.25
2019-05-12T09:34:52.925Z,2.17
2019-05-12T09:39:54.645Z,1.89
2019-05-12T09:45:08.149Z,1.68
2019-05-12T09:50:09.564Z,1.95
2019-05-12T09:55:16.110Z,1.89
2019-05-12T10:00:23.975Z,1.97
2019-05-12T10:05:36.189Z,2.03
2019-05-12T10:10:40.334Z,1.91
2019-05-12T10:15:44.508Z,1.82
2019-05-12T10:20:53.516Z,2.13
2019-05-12T10:26:06.344Z,2.25
2019-05-12T10:31:05.960Z,2.31
2019-05-12T10:36:13.424Z,2.26
2019-05-12T10:41:20.823Z,2.08
2019-05-12T10:46:28.705Z,2.15
2019-05-12T10:51:35.187Z,2.56
2019-05-12T10:56:43.806Z,2.64
2019-05-12T11:01:49.706Z,2.64
2019-05-12T11:06:57.207Z,2.28
2019-05-12T11:12:04.778Z,1.97
2019-05-12T11:17:13.805Z,2.20
2019-05-12T11:22:19.345Z,3.27
2019-05-12T11:27:26.748Z,2.21
2019-05-12T11:32:37.739Z,2.18
2019-05-12T11:37:41.377Z,2.28
2019-05-12T11:42:54.435Z,2.07
2019-05-12T11:47:56.936Z,2.14
2019-05-12T11:53:04.294Z,2.22
2019-05-12T11:58:11.372Z,2.40
2019-05-12T12:03:18.169Z,2.32
2019-05-12T12:08:26.323Z,2.06
2019-05-12T12:13:31.047Z,2.22
2019-05-12T12:18:38.674Z,1.97
2019-05-12T12:23:50.047Z,2.17
2019-05-12T12:28:53.817Z,2.58
2019-05-12T12:34:00.142Z,2.10
2019-05-12T12:39:07.610Z,1.72
2019-05-12T12:44:15.207Z,2.68
2019-05-12T12:49:23.354Z,1.93
2019-05-12T12:54:29.646Z,1.80
2019-05-12T12:59:42.821Z,1.37
2019-05-12T13:04:39.668Z,1.26
2019-05-12T13:09:44.623Z,1.68
2019-05-12T13:14:53.248Z,1.38
2019-05-12T13:19:59.038Z,1.37
2019-05-12T13:25:08.603Z,1.52
2019-05-12T13:30:20.170Z,1.97
2019-05-12T13:35:20.868Z,1.51
2019-05-12T13:40:29.875Z,1.49
2019-05-12T13:45:35.452Z,1.31
2019-05-12T13:50:43.419Z,1.29
2019-05-12T13:55:49.985Z,2.19
2019-05-12T14:01:13.341Z,1.64
2019-05-12T14:06:04.502Z,1.65
2019-05-12T14:11:11.961Z,1.51
2019-05-12T14:16:19.612Z,1.85
2019-05-12T14:21:27.122Z,1.53
2019-05-12T14:26:39.491Z,1.61
2019-05-12T14:31:45.345Z,1.91
2019-05-12T14:36:48.562Z,1.83
2019-05-12T14:41:55.977Z,1.70
2019-05-12T14:47:03.856Z,1.73
2019-05-12T14:52:10.582Z,1.77
2019-05-12T14:57:18.110Z,1.49
2019-05-12T15:02:28.222Z,1.46
2019-05-12T15:07:32.558Z,1.38
2019-05-12T15:12:40.163Z,1.58
2019-05-12T15:17:47.590Z,1.52
2019-05-12T15:22:55.461Z,1.55
2019-05-12T15:28:03.936Z,1.84
2019-05-12T15:33:10.111Z,1.87
2019-05-12T15:38:17.613Z,1.47
2019-05-12T15:43:25.046Z,1.63
2019-05-12T15:48:34.269Z,2.24
2019-05-12T15:53:39.855Z,1.99
2019-05-12T15:58:47.426Z,1.88
2019-05-12T16:03:54.858Z,1.74
2019-05-12T16:09:04.003Z,2.05
2019-05-12T16:14:09.301Z,2.01
2019-05-12T16:19:16.860Z,1.91
2019-05-12T16:24:27.143Z,2.01
2019-05-12T16:29:33.326Z,1.63
2019-05-12T16:34:44.998Z,1.89
2019-05-12T16:39:47.482Z,1.85
2019-05-12T16:44:56.144Z,1.77
2019-05-12T16:49:59.368Z,1.79
2019-05-12T16:55:06.838Z,1.76
2019-05-12T17:00:14.434Z,1.54
2019-05-12T17:05:23.861Z,1.68
2019-05-12T17:10:29.077Z,1.89
2019-05-12T17:15:36.552Z,1.91
2019-05-12T17:20:47.030Z,1.90
2019-05-12T17:25:51.208Z,1.78
2019-05-12T17:30:58.812Z,1.83
2019-05-12T17:36:11.676Z,1.64
2019-05-12T17:41:17.395Z,1.48
2019-05-12T17:46:23.195Z,1.68
2019-05-12T17:51:30.839Z,2.00
2019-05-12T17:56:38.657Z,1.94
2019-05-12T18:01:43.597Z,1.81
2019-05-12T18:06:49.458Z,2.27
2019-05-12T18:11:56.978Z,1.64
2019-05-12T18:17:08.705Z,1.78
2019-05-12T18:22:11.505Z,1.97
2019-05-12T18:27:19.048Z,1.97
2019-05-12T18:32:26.587Z,1.80
2019-05-12T18:37:34.486Z,2.02
2019-05-12T18:42:41.991Z,4.22
2019-05-12T18:47:49.568Z,2.10
2019-05-12T18:52:57.234Z,1.69
2019-05-12T18:58:04.847Z,1.53
2019-05-12T19:03:14.083Z,1.33
2019-05-12T19:08:20.402Z,2.09
2019-05-12T19:13:26.643Z,1.82
2019-05-12T19:18:37.177Z,2.47
2019-05-12T19:23:43.417Z,2.51
2019-05-12T19:28:53.099Z,3.19
2019-05-12T19:34:14.748Z,4.02
2019-05-12T19:39:03.531Z,3.23
2019-05-12T19:44:09.830Z,3.55
2019-05-12T19:49:20.175Z,4.39
2019-05-12T19:54:29.492Z,3.81
2019-05-12T19:59:34.000Z,3.40
2019-05-12T20:04:45.562Z,2.60
2019-05-12T20:14:56.758Z,2.46
2019-05-12T20:20:04.472Z,2.08
2019-05-12T20:25:09.286Z,1.95
2019-05-12T20:30:20.838Z,2.04
2019-05-12T20:35:24.158Z,1.93
2019-05-12T20:40:32.241Z,1.68
2019-05-12T20:45:40.864Z,1.90
2019-05-12T20:50:45.864Z,1.74
2019-05-12T20:55:54.743Z,1.67
2019-05-12T21:01:04.497Z,1.83
2019-05-12T21:06:07.652Z,1.72
2019-05-12T21:11:15.257Z,2.20
2019-05-12T21:16:31.167Z,2.03
2019-05-12T21:21:34.118Z,2.08
2019-05-12T21:26:38.030Z,2.26
2019-05-12T21:31:44.603Z,1.93
2019-05-12T21:36:50.767Z,2.09
2019-05-12T21:42:06.585Z,1.86
2019-05-12T21:47:10.205Z,2.09
2019-05-12T21:52:13.589Z,1.97
2019-05-12T21:57:19.275Z,2.46
2019-05-12T22:02:30.634Z,2.09
2019-05-12T22:07:38.089Z,1.94
2019-05-12T22:12:40.932Z,2.37
2019-05-12T22:17:48.383Z,2.15
2019-05-12T22:23:00.541Z,1.97
2019-05-12T22:28:07.831Z,2.38
2019-05-12T22:33:10.949Z,2.42
2019-05-12T22:38:20.977Z,2.25
2019-05-12T22:43:24.044Z,2.17
2019-05-12T22:48:37.078Z,2.25
2019-05-12T22:53:38.521Z,2.30
2019-05-12T22:58:45.933Z,2.41
2019-05-12T23:03:55.825Z,2.38
2019-05-12T23:09:00.761Z,2.37
2019-05-12T23:14:12.551Z,2.26
2019-05-12T23:19:15.315Z,2.13
2019-05-12T23:24:23.699Z,2.18
2019-05-12T23:29:30.943Z,2.20
2019-05-12T23:34:36.691Z,2.00
2019-05-12T23:39:44.307Z,2.10
2019-05-12T23:44:51.583Z,1.83
2019-05-12T23:49:58.935Z,2.32
2019-05-12T23:55:06.480Z,2.34
